Blythe Airport Blythe US
ICAO: KBLH
IATA: BLH
Category: Medium
Scheduled Services: No

Elevation: 399 ft
TransAlt. 18000 ft.

Airport Communications:
ASOS:120.175
LOS ANGELES CNTR:128.15
RIVERSIDE RDO:122.4
CTAF/UNICOM:122.8

KBLH Zoom In..

Runways:

(A) RW 08 length 6543 ft width 150 ft
---- / hdg 77

(B) RW 17 length 5800 ft width 100 ft
---- / hdg 167

(C) RW 26 length 6543 ft width 150 ft
---- / hdg 257

(D) RW 35 length 5800 ft width 100 ft
---- / hdg 347

Location; KBLH
Day. 20 / Time. 19.52 Zulu
* Altimeter: 29.83
* Temperature: 40° c. 104°f.
* Wind from: 160° Speed 08 kn.
Dewpoint: 17° c.
Visibility: 10 Statute Miles.
Clouds: Clear (automated report).

KBLH 201952Z AUTO 16008KT 10SM CLR 40/17 A2983 RMK AO2 SLP093 T04000172


Wind From 160°
Speed 08 kn.

 
 
jpsmedia.com for Web Design worldairports.se 2018   terms of use